Loon Lake, Washington
Current Conditions -  °F | °C
As of 5:53 PM on Thursday 20 Nov 2014 (Local Time) from KDEW Reporting Station
Haze Haze  
Wind Chill: 29°   Ceiling: 1000
Heat Index: 29°   Visibility: 4mi
Dew Point: 27°   Wind: 0mph
Humidity: 92%   Direction: NA
Pressure: 30.02"   Gusts: NA
Location:  48.06°N, 117.63°W
Report Text: KDEW 210153Z AUTO 00000KT 4SM BR BKN010 OVC016 M02/M03 A3002 RMK AO2 SLP188 T10171028
Loading
Personal Weather Stations






























Interactive Weather Map New forecast layout! Learn more

10-Day Weather Forecast

Advertisements
Track Severe Weather on mobile